createdAt,value
2023-02-09T00:01:10.602Z,1031.64
2023-02-09T00:05:08.563Z,1031.56
2023-02-09T00:10:08.236Z,1031.6
2023-02-09T00:15:08.196Z,1031.64
2023-02-09T00:20:08.155Z,1031.7
2023-02-09T00:25:08.091Z,1031.79
2023-02-09T00:30:08.006Z,1031.65
2023-02-09T00:35:07.912Z,1031.7
2023-02-09T00:40:08.853Z,1031.59
2023-02-09T00:45:08.773Z,1031.56
2023-02-09T00:50:08.756Z,1031.58
2023-02-09T00:55:08.698Z,1031.61
2023-02-09T01:00:08.649Z,1031.57
2023-02-09T01:05:08.592Z,1031.55
2023-02-09T01:10:08.557Z,1031.59
2023-02-09T01:15:08.476Z,1031.6
2023-02-09T01:20:08.393Z,1031.62
2023-02-09T01:25:08.326Z,1031.64
2023-02-09T01:30:08.224Z,1031.61
2023-02-09T01:35:08.414Z,1031.67
2023-02-09T01:40:08.364Z,1031.69
2023-02-09T01:45:08.301Z,1031.69
2023-02-09T01:50:08.303Z,1031.68
2023-02-09T01:55:08.197Z,1031.68
2023-02-09T02:00:08.106Z,1031.7
2023-02-09T02:05:08.073Z,1031.71
2023-02-09T02:10:07.987Z,1031.51
2023-02-09T02:15:07.959Z,1031.47
2023-02-09T02:20:07.927Z,1031.47
2023-02-09T02:25:08.833Z,1031.45
2023-02-09T02:30:08.757Z,1031.37
2023-02-09T02:35:08.728Z,1031.3
2023-02-09T02:40:08.686Z,1031.32
2023-02-09T02:45:18.604Z,1031.26
2023-02-09T02:50:08.553Z,1031.19
2023-02-09T02:55:08.537Z,1031.21
2023-02-09T03:00:08.450Z,1031.21
2023-02-09T03:05:08.376Z,1031.16
2023-02-09T03:10:08.338Z,1031.16
2023-02-09T03:15:08.261Z,1031.23
2023-02-09T03:20:08.173Z,1031.21
2023-02-09T03:25:08.100Z,1031.08
2023-02-09T03:30:11.606Z,1030.94
2023-02-09T03:35:11.564Z,1030.92
2023-02-09T03:40:08.521Z,1030.97
2023-02-09T03:45:08.451Z,1030.94
2023-02-09T03:50:08.389Z,1030.91
2023-02-09T03:55:08.308Z,1030.91
2023-02-09T04:00:08.221Z,1030.76
2023-02-09T04:05:08.141Z,1030.86
2023-02-09T04:10:08.063Z,1030.86
2023-02-09T04:15:07.981Z,1030.92
2023-02-09T04:20:07.958Z,1030.98
2023-02-09T04:25:07.934Z,1030.89
2023-02-09T04:30:07.876Z,1030.82
2023-02-09T04:35:08.816Z,1030.8
2023-02-09T04:40:08.767Z,1030.82
2023-02-09T04:45:08.673Z,1030.61
2023-02-09T04:50:08.608Z,1030.59
2023-02-09T04:55:08.594Z,1030.62
2023-02-09T05:00:08.502Z,1030.6
2023-02-09T05:05:02.694Z,1030.61
2023-02-09T05:10:02.944Z,1030.48
2023-02-09T05:15:01.909Z,1030.51
2023-02-09T05:20:03.275Z,1030.55
2023-02-09T05:25:02.410Z,1030.62
2023-02-09T05:30:02.443Z,1030.67
2023-02-09T05:35:02.516Z,1030.62
2023-02-09T05:40:02.510Z,1030.59
2023-02-09T05:45:02.557Z,1030.56
2023-02-09T05:50:02.654Z,1030.51
2023-02-09T05:55:02.706Z,1030.54
2023-02-09T06:00:02.759Z,1030.69
2023-02-09T06:05:02.803Z,1030.66
2023-02-09T06:10:02.820Z,1030.87
2023-02-09T06:15:02.867Z,1030.87
2023-02-09T06:20:02.870Z,1030.86
2023-02-09T06:25:03.023Z,1031.02
2023-02-09T06:30:02.283Z,1031.11
2023-02-09T06:35:02.469Z,1030.96
2023-02-09T06:40:02.502Z,1030.96
2023-02-09T06:45:02.588Z,1030.92
2023-02-09T06:50:02.658Z,1030.81
2023-02-09T06:55:02.719Z,1030.66
2023-02-09T07:00:02.783Z,1030.84
2023-02-09T07:05:02.777Z,1030.76
2023-02-09T07:10:03.111Z,1030.83
2023-02-09T07:15:02.115Z,1030.98
2023-02-09T07:20:02.166Z,1030.98
2023-02-09T07:25:02.171Z,1031.04
2023-02-09T07:30:02.258Z,1031.13
2023-02-09T07:35:02.501Z,1031.22
2023-02-09T07:40:02.688Z,1031.36
2023-02-09T07:45:02.689Z,1031.36
2023-02-09T07:50:02.738Z,1031.36
2023-02-09T07:55:02.777Z,1031.39
2023-02-09T08:00:02.995Z,1031.39
2023-02-09T08:05:02.113Z,1031.33
2023-02-09T08:10:02.172Z,1031.4
2023-02-09T08:15:02.227Z,1031.48
2023-02-09T08:20:02.344Z,1031.59
2023-02-09T08:25:02.515Z,1031.59
2023-02-09T08:30:02.484Z,1031.56
2023-02-09T08:35:02.871Z,1031.62
2023-02-09T08:40:03.069Z,1031.77
2023-02-09T08:45:02.090Z,1031.65
2023-02-09T08:50:02.134Z,1031.54
2023-02-09T08:55:02.216Z,1031.5
2023-02-09T09:00:02.315Z,1031.3
2023-02-09T09:05:02.445Z,1031.27
2023-02-09T09:10:02.517Z,1031.13
2023-02-09T09:15:02.593Z,1031.08
2023-02-09T09:20:02.641Z,1031.08
2023-02-09T09:25:02.810Z,1031.08
2023-02-09T09:30:02.840Z,1031.19
2023-02-09T09:35:02.846Z,1031.17
2023-02-09T09:40:03.071Z,1031.24
2023-02-09T09:45:02.175Z,1031.29
2023-02-09T09:50:02.330Z,1031.34
2023-02-09T09:55:02.499Z,1031.2
2023-02-09T10:00:02.631Z,1031.16
2023-02-09T10:05:02.711Z,1031.06
2023-02-09T10:10:02.875Z,1031.3
2023-02-09T10:15:03.035Z,1031.35
2023-02-09T10:20:02.235Z,1031.39
2023-02-09T10:25:02.295Z,1031.33
2023-02-09T10:30:02.374Z,1031.3
2023-02-09T10:35:02.416Z,1031.21
2023-02-09T10:40:12.489Z,1031.29
2023-02-09T10:45:02.603Z,1031.44
2023-02-09T10:50:02.641Z,1031.37
2023-02-09T10:55:02.632Z,1031.43
2023-02-09T11:00:02.673Z,1031.22
2023-02-09T11:05:02.976Z,1031.5
2023-02-09T11:10:02.707Z,1031.43
2023-02-09T11:15:02.794Z,1031.48
2023-02-09T11:20:02.841Z,1031.39
2023-02-09T11:25:02.937Z,1031.58
2023-02-09T11:30:02.192Z,1031.58
2023-02-09T11:35:08.440Z,1031.34
2023-02-09T11:40:02.461Z,1031.31
2023-02-09T11:45:02.584Z,1031.34
2023-02-09T11:50:02.588Z,1031.36
2023-02-09T11:55:02.664Z,1031.33
2023-02-09T12:00:02.765Z,1031.23
2023-02-09T12:05:02.886Z,1031.2
2023-02-09T12:10:02.930Z,1031.21
2023-02-09T12:15:02.945Z,1031.18
2023-02-09T12:20:01.970Z,1031.32
2023-02-09T12:25:02.030Z,1031.39
2023-02-09T12:30:02.181Z,1031.44
2023-02-09T12:35:02.274Z,1031.39
2023-02-09T12:40:02.351Z,1031.32
2023-02-09T12:45:02.494Z,1031.12
2023-02-09T12:50:02.623Z,1031.14
2023-02-09T12:55:02.644Z,1031.14
2023-02-09T13:00:02.703Z,1031.23
2023-02-09T13:05:02.927Z,1031.09
2023-02-09T13:10:02.100Z,1031.06
2023-02-09T13:15:02.114Z,1031.13
2023-02-09T13:20:02.193Z,1031.02
2023-02-09T13:25:02.302Z,1031.1
2023-02-09T13:30:02.317Z,1030.85
2023-02-09T13:35:02.342Z,1030.8
2023-02-09T13:40:02.618Z,1030.79
2023-02-09T13:45:02.630Z,1030.79
2023-02-09T13:50:02.649Z,1030.86
2023-02-09T13:55:07.048Z,1030.9
2023-02-09T14:00:02.123Z,1030.96
2023-02-09T14:05:02.147Z,1030.94
2023-02-09T14:10:02.220Z,1030.95
2023-02-09T14:15:02.529Z,1030.95
2023-02-09T14:20:02.735Z,1031.04
2023-02-09T14:25:02.847Z,1030.96
2023-02-09T14:30:02.998Z,1030.94
2023-02-09T14:35:01.996Z,1030.98
2023-02-09T14:40:02.162Z,1031.02
2023-02-09T14:45:02.193Z,1031.09
2023-02-09T14:50:02.239Z,1031.04
2023-02-09T14:55:02.268Z,1031.05
2023-02-09T15:00:02.358Z,1031.02
2023-02-09T15:05:02.403Z,1031.07
2023-02-09T15:10:02.470Z,1031.13
2023-02-09T15:15:02.513Z,1031.11
2023-02-09T15:20:02.533Z,1031.21
2023-02-09T15:25:02.542Z,1031.22
2023-02-09T15:30:04.739Z,1031.22
2023-02-09T15:35:02.008Z,1031.25
2023-02-09T15:40:12.089Z,1031.23
2023-02-09T15:45:02.092Z,1031.27
2023-02-09T15:50:02.095Z,1031.33
2023-02-09T15:55:02.230Z,1031.36
2023-02-09T16:00:02.366Z,1031.54
2023-02-09T16:05:02.464Z,1031.47
2023-02-09T16:10:02.637Z,1031.58
2023-02-09T16:15:02.653Z,1031.56
2023-02-09T16:20:02.775Z,1031.66
2023-02-09T16:25:02.858Z,1031.64
2023-02-09T16:30:02.925Z,1031.68
2023-02-09T16:35:14.939Z,1031.62
2023-02-09T16:40:02.627Z,1031.8
2023-02-09T16:45:02.721Z,1031.75
2023-02-09T16:50:02.860Z,1031.94
2023-02-09T16:55:02.900Z,1031.95
2023-02-09T17:00:02.898Z,1031.97
2023-02-09T17:05:02.995Z,1031.98
2023-02-09T17:10:02.107Z,1032.08
2023-02-09T17:15:02.206Z,1032.15
2023-02-09T17:20:02.217Z,1032.37
2023-02-09T17:25:02.293Z,1032.31
2023-02-09T17:30:02.489Z,1032.4
2023-02-09T17:35:02.519Z,1032.39
2023-02-09T17:40:02.536Z,1032.47
2023-02-09T17:45:02.599Z,1032.49
2023-02-09T17:50:02.887Z,1032.48
2023-02-09T17:55:03.011Z,1032.45
2023-02-09T18:00:02.058Z,1032.57
2023-02-09T18:05:02.340Z,1032.63
2023-02-09T18:10:02.303Z,1032.69
2023-02-09T18:15:02.475Z,1032.64
2023-02-09T18:20:02.559Z,1032.63
2023-02-09T18:25:02.698Z,1032.62
2023-02-09T18:30:02.807Z,1032.69
2023-02-09T18:35:02.871Z,1032.71
2023-02-09T18:40:02.970Z,1032.78
2023-02-09T18:45:02.071Z,1032.84
2023-02-09T18:50:02.173Z,1032.88
2023-02-09T18:55:02.209Z,1032.92
2023-02-09T19:00:02.305Z,1033.0
2023-02-09T19:05:02.360Z,1032.97
2023-02-09T19:10:02.721Z,1033.01
2023-02-09T19:15:02.761Z,1032.92
2023-02-09T19:20:02.974Z,1033.03
2023-02-09T19:25:02.058Z,1033.13
2023-02-09T19:30:02.090Z,1033.17
2023-02-09T19:35:02.374Z,1033.2
2023-02-09T19:40:02.459Z,1033.3
2023-02-09T19:45:02.497Z,1033.35
2023-02-09T19:50:02.521Z,1033.4
2023-02-09T19:55:02.616Z,1033.49
2023-02-09T20:00:05.664Z,1033.53
2023-02-09T20:05:02.051Z,1033.6
2023-02-09T20:10:02.048Z,1033.52
2023-02-09T20:15:02.060Z,1033.6
2023-02-09T20:20:02.297Z,1033.67
2023-02-09T20:25:02.304Z,1033.64
2023-02-09T20:30:02.308Z,1033.72
2023-02-09T20:35:02.394Z,1033.73
2023-02-09T20:40:02.420Z,1033.69
2023-02-09T20:45:02.473Z,1033.66
2023-02-09T20:50:02.676Z,1033.65
2023-02-09T20:55:02.693Z,1033.63
2023-02-09T21:00:02.749Z,1033.71
2023-02-09T21:05:02.801Z,1033.72
2023-02-09T21:10:02.814Z,1033.66
2023-02-09T21:15:02.842Z,1033.69
2023-02-09T21:20:02.865Z,1033.69
2023-02-09T21:25:02.922Z,1033.69
2023-02-09T21:30:02.964Z,1033.81
2023-02-09T21:35:01.932Z,1033.79
2023-02-09T21:40:02.002Z,1033.85
2023-02-09T21:45:02.181Z,1033.86
2023-02-09T21:50:02.361Z,1033.91
2023-02-09T21:55:02.419Z,1033.93
2023-02-09T22:00:02.490Z,1033.95
2023-02-09T22:05:08.480Z,1033.83
2023-02-09T22:10:08.650Z,1033.79
2023-02-09T22:15:08.611Z,1033.93
2023-02-09T22:20:08.592Z,1033.84
2023-02-09T22:25:08.531Z,1033.84
2023-02-09T22:30:08.455Z,1033.81
2023-02-09T22:35:08.394Z,1033.87
2023-02-09T22:40:08.336Z,1033.88
2023-02-09T22:45:08.276Z,1033.84
2023-02-09T22:50:08.197Z,1033.88
2023-02-09T22:55:08.100Z,1034.01
2023-02-09T23:00:08.094Z,1033.99
2023-02-09T23:05:08.054Z,1034.03
2023-02-09T23:10:08.068Z,1034.16
2023-02-09T23:15:08.005Z,1034.15
2023-02-09T23:20:07.956Z,1034.15
2023-02-09T23:25:07.888Z,1034.16
2023-02-09T23:30:08.805Z,1034.21
2023-02-09T23:35:09.084Z,1034.27
2023-02-09T23:40:08.093Z,1034.25
2023-02-09T23:45:08.045Z,1034.37
2023-02-09T23:50:08.001Z,1034.36
2023-02-09T23:55:07.919Z,1034.41
